Time;durP1;ratioP1;P1;durP2;ratioP2;P2;SDS_P1;SDS_P2;PMS_P1;PMS_P2;Temp;Humidity;BMP_temperature;BMP_pressure;BME280_temperature;BME280_humidity;BME280_pressure;Samples;Min_cycle;Max_cycle;Signal;HPM_P1;HPM_P2
2023/03/26 00:01:35;;;;;;;31.73;11.07;;;4.50;99.90;;;;;;5107910;28;20056;-59
2023/03/26 00:04:05;;;;;;;21.73;8.38;;;4.50;99.90;;;;;;5107993;28;20036;-60
2023/03/26 00:06:37;;;;;;;19.98;8.15;;;4.50;99.90;;;;;;5104048;28;20051;-59
2023/03/26 00:09:12;;;;;;;17.23;8.25;;;4.50;99.90;;;;;;5075420;28;20052;-59
2023/03/26 00:11:41;;;;;;;22.75;8.38;;;4.50;99.90;;;;;;5054035;28;20059;-60
2023/03/26 00:14:12;;;;;;;22.33;9.23;;;4.50;99.90;;;;;;5099731;28;20036;-60
2023/03/26 00:16:43;;;;;;;26.00;9.82;;;4.50;99.90;;;;;;5071876;28;20060;-59
2023/03/26 00:19:12;;;;;;;24.35;11.27;;;4.50;99.90;;;;;;5100433;28;20039;-60
2023/03/26 00:21:40;;;;;;;28.40;10.77;;;4.60;99.90;;;;;;5108465;28;20416;-59
2023/03/26 00:24:13;;;;;;;26.95;11.27;;;4.60;99.90;;;;;;5106818;28;20047;-58
2023/03/26 00:26:42;;;;;;;29.80;12.23;;;4.70;99.90;;;;;;5094069;28;20445;-60
2023/03/26 00:29:15;;;;;;;26.30;13.25;;;4.70;99.90;;;;;;5100491;28;20051;-58
2023/03/26 00:31:44;;;;;;;33.40;12.98;;;4.80;99.90;;;;;;5090427;28;20048;-60
2023/03/26 00:34:17;;;;;;;28.30;12.63;;;4.90;99.90;;;;;;5107543;28;20423;-61
2023/03/26 00:36:45;;;;;;;40.58;14.63;;;4.90;99.90;;;;;;5089936;28;20633;-60
2023/03/26 00:39:14;;;;;;;37.88;13.98;;;5.00;99.90;;;;;;5106701;28;20042;-60
2023/03/26 00:41:41;;;;;;;34.60;14.45;;;5.10;99.90;;;;;;5108187;28;20398;-60
2023/03/26 00:44:10;;;;;;;32.38;12.40;;;4.90;99.90;;;;;;5107960;28;20055;-59
2023/03/26 00:46:38;;;;;;;33.85;13.18;;;5.20;99.90;;;;;;5091524;28;20048;-59
2023/03/26 00:49:09;;;;;;;31.77;13.70;;;5.20;99.90;;;;;;5099085;28;20394;-60
2023/03/26 00:51:37;;;;;;;32.05;13.50;;;5.20;99.90;;;;;;5108185;28;20040;-61
2023/03/26 00:54:07;;;;;;;28.73;11.68;;;5.30;99.90;;;;;;5090236;28;20047;-58
2023/03/26 00:56:35;;;;;;;22.75;10.80;;;5.30;99.90;;;;;;5107933;28;20043;-60
2023/03/26 00:59:02;;;;;;;25.73;10.43;;;5.40;99.90;;;;;;5107184;28;20058;-60
2023/03/26 01:01:31;;;;;;;27.77;11.27;;;5.40;99.90;;;;;;5089110;28;20040;-60
2023/03/26 01:04:29;;;;;;;31.42;11.35;;;5.40;99.90;;;;;;5104479;28;20052;-60
2023/03/26 01:07:02;;;;;;;24.38;10.77;;;5.50;99.90;;;;;;5104516;28;20509;-60
2023/03/26 01:09:34;;;;;;;23.42;9.10;;;5.50;99.90;;;;;;5108053;28;20039;-60
2023/03/26 01:12:06;;;;;;;24.23;9.50;;;5.50;99.90;;;;;;5110777;28;20047;-60
2023/03/26 01:14:34;;;;;;;19.50;8.88;;;5.50;99.90;;;;;;5111763;28;20043;-60
2023/03/26 01:17:05;;;;;;;26.23;9.07;;;5.50;99.90;;;;;;5106607;28;20093;-59
2023/03/26 01:19:39;;;;;;;22.20;7.60;;;5.50;99.90;;;;;;5103052;28;20044;-60
2023/03/26 01:22:10;;;;;;;22.42;8.75;;;5.60;99.90;;;;;;5111892;28;20157;-59
2023/03/26 01:24:39;;;;;;;22.30;8.52;;;5.60;99.90;;;;;;5110278;28;20047;-60
2023/03/26 01:27:24;;;;;;;28.85;9.77;;;5.70;99.90;;;;;;5111545;28;20051;-60
2023/03/26 01:30:13;;;;;;;18.23;6.88;;;5.80;99.90;;;;;;5098944;28;20036;-59
2023/03/26 01:33:28;;;;;;;19.40;6.00;;;5.80;99.90;;;;;;5111871;28;20043;-60
2023/03/26 01:36:13;;;;;;;21.88;5.18;;;5.80;99.90;;;;;;5095772;28;20066;-60
2023/03/26 01:39:00;;;;;;;11.80;4.82;;;5.80;99.90;;;;;;5113898;28;20042;-60
2023/03/26 01:41:47;;;;;;;16.67;6.30;;;5.90;99.90;;;;;;5114854;28;20059;-59
2023/03/26 01:44:43;;;;;;;17.55;3.33;;;5.90;99.90;;;;;;5114701;28;20044;-61
2023/03/26 01:47:12;;;;;;;14.27;2.92;;;5.90;99.90;;;;;;5102798;28;20044;-59
2023/03/26 01:49:40;;;;;;;17.67;3.17;;;5.90;99.90;;;;;;5096248;28;20055;-60
2023/03/26 01:52:14;;;;;;;10.35;3.22;;;6.00;99.90;;;;;;5097083;28;20475;-62
2023/03/26 01:54:45;;;;;;;11.30;3.97;;;6.00;99.90;;;;;;5108459;28;20040;-61
2023/03/26 01:57:25;;;;;;;11.30;3.42;;;6.10;99.90;;;;;;5112901;28;20044;-61
2023/03/26 02:00:10;;;;;;;11.15;2.50;;;6.10;99.90;;;;;;5093686;28;20062;-60
2023/03/26 02:02:53;;;;;;;11.18;2.95;;;6.10;99.90;;;;;;5113714;28;20043;-62
2023/03/26 02:05:26;;;;;;;16.48;3.55;;;6.10;99.90;;;;;;5112845;28;20044;-61
2023/03/26 02:08:30;;;;;;;14.13;2.88;;;6.10;99.90;;;;;;5100880;28;20383;-63
2023/03/26 02:11:00;;;;;;;13.07;2.30;;;6.10;99.90;;;;;;5080091;28;20056;-60
2023/03/26 02:13:28;;;;;;;17.70;2.95;;;6.10;99.90;;;;;;5093575;28;20399;-60
2023/03/26 02:16:01;;;;;;;9.93;3.08;;;6.10;99.90;;;;;;5095486;28;20047;-59
2023/03/26 02:18:35;;;;;;;10.02;3.00;;;6.20;99.90;;;;;;5099864;28;20044;-61
2023/03/26 02:21:18;;;;;;;7.35;2.22;;;6.20;99.90;;;;;;5093538;28;20044;-59
2023/03/26 02:23:49;;;;;;;10.85;2.72;;;6.20;99.90;;;;;;5097200;28;20044;-63
2023/03/26 02:26:19;;;;;;;9.38;2.63;;;6.20;99.90;;;;;;5075161;28;20052;-59
2023/03/26 02:28:55;;;;;;;10.25;1.80;;;6.20;99.90;;;;;;5093432;28;20036;-59
2023/03/26 02:31:26;;;;;;;14.23;2.45;;;6.20;99.90;;;;;;5092345;28;20055;-60
2023/03/26 02:33:55;;;;;;;11.07;2.53;;;6.20;99.90;;;;;;5071985;28;20053;-60
2023/03/26 02:36:26;;;;;;;;;;;6.20;99.90;;;;;;5072342;28;20044;-61
2023/03/26 02:38:59;;;;;;;22.00;4.20;;;6.20;99.90;;;;;;5088744;28;19928;-59
2023/03/26 02:41:28;;;;;;;13.05;3.97;;;6.20;99.90;;;;;;5071774;28;20586;-60
2023/03/26 02:44:07;;;;;;;18.25;4.70;;;6.20;99.90;;;;;;5071890;28;20044;-59
2023/03/26 02:46:53;;;;;;;27.08;6.07;;;6.20;99.90;;;;;;5073004;28;20040;-59
2023/03/26 02:49:39;;;;;;;15.52;5.32;;;6.20;99.90;;;;;;5089672;28;20047;-59
2023/03/26 02:52:07;;;;;;;11.95;5.53;;;6.20;99.90;;;;;;5091888;28;20048;-59
2023/03/26 02:54:36;;;;;;;15.93;6.28;;;6.20;99.90;;;;;;5109050;28;20048;-60
2023/03/26 02:57:12;;;;;;;17.40;8.90;;;6.30;99.90;;;;;;5092808;28;20040;-59
2023/03/26 02:59:45;;;;;;;22.73;9.55;;;6.30;99.90;;;;;;5079521;28;20051;-59
2023/03/26 03:02:49;;;;;;;21.98;11.02;;;6.30;99.90;;;;;;5050432;28;20517;-60
2023/03/26 03:05:33;;;;;;;34.97;12.90;;;6.30;99.90;;;;;;5087938;28;20507;-58
2023/03/26 03:08:10;;;;;;;30.48;13.18;;;6.30;99.90;;;;;;5088301;28;20051;-58
2023/03/26 03:11:14;;;;;;;30.77;12.80;;;6.30;99.90;;;;;;5087666;28;20071;-58
2023/03/26 03:13:44;;;;;;;26.98;10.77;;;6.30;99.90;;;;;;5056583;28;20057;-60
2023/03/26 03:16:19;;;;;;;26.73;11.75;;;6.30;99.90;;;;;;5070710;28;20053;-60
2023/03/26 03:18:53;;;;;;;28.02;12.52;;;6.30;99.90;;;;;;5079140;28;20487;-60
2023/03/26 03:21:24;;;;;;;26.85;11.70;;;6.30;99.90;;;;;;5091225;28;20487;-61
2023/03/26 03:23:52;;;;;;;29.00;12.30;;;6.30;99.90;;;;;;5089196;28;20047;-59
2023/03/26 03:26:26;;;;;;;27.30;13.15;;;6.40;99.90;;;;;;5091045;28;20044;-59
2023/03/26 03:28:57;;;;;;;25.02;11.07;;;6.40;99.90;;;;;;5090421;28;20052;-58
2023/03/26 03:31:26;;;;;;;29.35;11.85;;;6.30;99.90;;;;;;5090693;28;20055;-58
2023/03/26 03:33:59;;;;;;;29.05;12.25;;;6.40;99.90;;;;;;5107400;28;20056;-58
2023/03/26 03:36:31;;;;;;;25.88;12.15;;;6.40;99.90;;;;;;5091014;28;20419;-58
2023/03/26 03:39:06;;;;;;;28.00;11.88;;;6.40;99.90;;;;;;5091297;28;20048;-59
2023/03/26 03:41:35;;;;;;;25.60;9.73;;;6.40;99.90;;;;;;5087344;28;20056;-59
2023/03/26 03:44:06;;;;;;;25.52;11.05;;;6.30;99.90;;;;;;5070668;28;20044;-58
2023/03/26 03:46:34;;;;;;;32.88;11.40;;;6.40;99.90;;;;;;5087521;28;20057;-60
2023/03/26 03:49:02;;;;;;;24.77;10.95;;;6.30;99.90;;;;;;5087614;28;20048;-59
2023/03/26 03:51:35;;;;;;;23.42;10.70;;;6.40;99.90;;;;;;5079732;28;20036;-58
2023/03/26 03:54:14;;;;;;;22.50;10.33;;;6.40;99.90;;;;;;5070730;28;20384;-59
2023/03/26 03:56:46;;;;;;;23.60;10.30;;;6.40;99.90;;;;;;5074080;28;20296;-60
2023/03/26 03:59:28;;;;;;;24.83;10.63;;;6.40;99.90;;;;;;5074101;28;20040;-59
2023/03/26 04:01:57;;;;;;;23.42;8.98;;;6.40;99.90;;;;;;5089959;28;20054;-60
2023/03/26 04:04:48;;;;;;;21.52;9.20;;;7.40;99.90;;;;;;5071270;28;20044;-61
2023/03/26 04:07:19;;;;;;;18.85;8.98;;;6.40;99.90;;;;;;5070116;28;20051;-59
2023/03/26 04:10:08;;;;;;;25.63;8.38;;;6.40;99.90;;;;;;5071386;28;20041;-59
2023/03/26 04:12:56;;;;;;;19.15;8.05;;;6.50;99.90;;;;;;5080509;28;20056;-60
2023/03/26 04:15:43;;;;;;;17.02;8.18;;;6.50;99.90;;;;;;5069726;28;20059;-59
2023/03/26 04:18:11;;;;;;;21.40;8.27;;;6.50;99.90;;;;;;5070182;28;20048;-60
2023/03/26 04:20:46;;;;;;;13.20;7.28;;;6.50;99.90;;;;;;5070079;28;20036;-58
2023/03/26 04:23:21;;;;;;;17.83;6.75;;;6.50;99.90;;;;;;5084010;28;20040;-59
2023/03/26 04:25:57;;;;;;;16.00;6.45;;;6.50;99.90;;;;;;5090491;28;20040;-58
2023/03/26 04:28:55;;;;;;;13.40;5.97;;;6.40;99.90;;;;;;5090252;28;20044;-61
2023/03/26 04:31:30;;;;;;;12.45;5.93;;;6.50;99.90;;;;;;5095034;28;20035;-60
2023/03/26 04:34:06;;;;;;;13.88;6.50;;;6.40;99.90;;;;;;5107328;28;20055;-59
2023/03/26 04:36:41;;;;;;;15.98;6.07;;;6.40;99.90;;;;;;5090287;28;20047;-59
2023/03/26 04:39:12;;;;;;;12.05;5.35;;;6.40;99.90;;;;;;5090113;28;20052;-59
2023/03/26 04:41:59;;;;;;;15.20;6.35;;;6.40;99.90;;;;;;5090097;28;20479;-59
2023/03/26 04:44:33;;;;;;;11.45;5.45;;;6.40;99.90;;;;;;5070188;28;20045;-60
2023/03/26 04:47:06;;;;;;;15.30;5.45;;;6.40;99.90;;;;;;5072166;28;20048;-60
2023/03/26 04:49:45;;;;;;;6.80;4.28;;;6.40;99.90;;;;;;5103440;28;20052;-60
2023/03/26 04:52:23;;;;;;;14.02;4.85;;;6.40;99.90;;;;;;5073787;28;20054;-60
2023/03/26 04:55:21;;;;;;;11.18;5.05;;;6.40;99.90;;;;;;5092033;28;20047;-62
2023/03/26 04:58:03;;;;;;;13.95;5.10;;;6.40;99.90;;;;;;5090452;28;20051;-59
2023/03/26 05:01:04;;;;;;;11.65;4.70;;;6.40;99.90;;;;;;5085321;28;20056;-60
2023/03/26 05:03:41;;;;;;;13.68;4.70;;;6.40;99.90;;;;;;5078945;28;20055;-58
2023/03/26 05:06:12;;;;;;;13.90;4.43;;;6.40;99.90;;;;;;5103494;28;20056;-57
2023/03/26 05:08:41;;;;;;;9.87;4.03;;;6.40;99.90;;;;;;5067589;28;20048;-60
2023/03/26 05:11:16;;;;;;;13.35;3.88;;;6.40;99.90;;;;;;5054353;28;20419;-58
2023/03/26 05:13:46;;;;;;;11.82;4.10;;;6.30;99.90;;;;;;5071436;28;20044;-60
2023/03/26 05:16:16;;;;;;;10.63;3.95;;;6.30;99.90;;;;;;5067983;28;20052;-59
2023/03/26 05:18:55;;;;;;;14.98;3.92;;;6.30;99.90;;;;;;5097450;28;20369;-60
2023/03/26 05:21:24;;;;;;;8.97;3.30;;;6.40;99.90;;;;;;5089355;28;20400;-59
2023/03/26 05:23:52;;;;;;;9.38;3.95;;;6.30;99.90;;;;;;5086197;28;20044;-58
2023/03/26 05:26:21;;;;;;;9.37;4.17;;;6.30;99.90;;;;;;5081730;28;20484;-59
2023/03/26 05:28:49;;;;;;;13.02;4.50;;;6.30;99.90;;;;;;5085879;28;20055;-59
2023/03/26 05:31:34;;;;;;;13.10;5.18;;;6.30;99.90;;;;;;5092608;28;20494;-59
2023/03/26 05:34:03;;;;;;;18.67;5.55;;;6.30;99.90;;;;;;5085052;28;20499;-59
2023/03/26 05:36:31;;;;;;;13.82;5.95;;;5.30;99.90;;;;;;5089353;28;20410;-60
2023/03/26 05:39:08;;;;;;;9.25;5.07;;;6.30;99.90;;;;;;5076016;28;20055;-58
2023/03/26 05:41:58;;;;;;;12.85;6.43;;;6.30;99.90;;;;;;5070262;28;20443;-59
2023/03/26 05:44:43;;;;;;;11.55;6.88;;;6.30;99.90;;;;;;5089867;28;20044;-59
2023/03/26 05:47:19;;;;;;;21.50;8.05;;;6.30;99.90;;;;;;5089555;28;20570;-60
2023/03/26 05:49:50;;;;;;;16.23;8.00;;;6.20;99.90;;;;;;5089283;28;20044;-61
2023/03/26 05:52:18;;;;;;;19.33;8.18;;;6.20;99.90;;;;;;5087073;28;20049;-60
2023/03/26 05:55:17;;;;;;;18.58;7.70;;;6.30;99.90;;;;;;5035562;28;20054;-64
2023/03/26 05:58:03;;;;;;;18.60;7.60;;;6.30;99.90;;;;;;5076138;28;20044;-59
2023/03/26 06:00:57;;;;;;;17.23;6.88;;;6.30;99.90;;;;;;5084418;28;20426;-61
2023/03/26 06:03:33;;;;;;;13.70;6.68;;;6.20;99.90;;;;;;5085789;28;20400;-59
2023/03/26 06:06:16;;;;;;;13.75;5.72;;;6.20;99.90;;;;;;5075808;28;20407;-60
2023/03/26 06:08:56;;;;;;;14.90;6.05;;;6.20;99.90;;;;;;5085993;28;20048;-61
2023/03/26 06:11:31;;;;;;;14.55;5.57;;;6.20;99.90;;;;;;5076753;28;20044;-60
2023/03/26 06:14:00;;;;;;;10.75;5.53;;;6.20;99.90;;;;;;5083886;28;20040;-60
2023/03/26 06:16:28;;;;;;;11.35;5.63;;;6.20;99.90;;;;;;5089269;28;20399;-59
2023/03/26 06:19:08;;;;;;;12.85;6.18;;;6.20;99.90;;;;;;5088095;28;20055;-59
2023/03/26 06:21:50;;;;;;;13.30;5.50;;;6.10;99.90;;;;;;5086564;28;20041;-60
2023/03/26 06:24:21;;;;;;;9.98;4.90;;;6.10;99.90;;;;;;5084577;28;20400;-60
2023/03/26 06:27:01;;;;;;;7.03;4.40;;;6.10;99.90;;;;;;5079663;28;20051;-60
2023/03/26 06:29:38;;;;;;;10.38;5.13;;;6.10;99.90;;;;;;5079272;28;20048;-59
2023/03/26 06:32:15;;;;;;;9.60;4.43;;;6.10;99.90;;;;;;5087494;28;20391;-59
2023/03/26 06:34:53;;;;;;;13.73;5.40;;;6.10;99.90;;;;;;5068285;28;20519;-59
2023/03/26 06:37:21;;;;;;;13.70;4.80;;;6.10;99.90;;;;;;5078348;28;20506;-60
2023/03/26 06:39:53;;;;;;;8.50;4.03;;;6.10;99.90;;;;;;5068274;28;20040;-60
2023/03/26 06:42:42;;;;;;;9.23;4.68;;;6.10;99.90;;;;;;5088082;28;20052;-60
2023/03/26 06:45:50;;;;;;;12.25;4.93;;;6.10;99.90;;;;;;5068119;28;20052;-61
2023/03/26 06:48:40;;;;;;;11.60;4.72;;;6.10;99.90;;;;;;5068027;28;20052;-59
2023/03/26 06:51:20;;;;;;;7.70;4.03;;;6.10;99.90;;;;;;5088378;28;20036;-60
2023/03/26 06:54:06;;;;;;;11.40;4.40;;;6.20;99.90;;;;;;5085079;28;20398;-61
2023/03/26 06:56:43;;;;;;;12.90;4.43;;;6.20;99.90;;;;;;5089030;28;20044;-61
2023/03/26 06:59:32;;;;;;;14.15;4.00;;;6.20;99.90;;;;;;5050422;28;20065;-60
2023/03/26 07:02:18;;;;;;;10.77;3.03;;;6.20;99.90;;;;;;5084923;28;20048;-60
2023/03/26 07:05:25;;;;;;;8.95;3.05;;;6.20;99.90;;;;;;5062701;28;20658;-60
2023/03/26 07:08:15;;;;;;;12.52;2.78;;;6.20;99.90;;;;;;5065243;28;20579;-59
2023/03/26 07:11:02;;;;;;;13.00;2.90;;;6.20;99.90;;;;;;5068644;28;20052;-59
2023/03/26 07:14:05;;;;;;;4.90;2.70;;;4.00;99.90;;;;;;5073870;28;20059;-63
2023/03/26 07:16:53;;;;;;;9.50;2.47;;;6.10;99.90;;;;;;5088228;28;20040;-60
2023/03/26 07:19:45;;;;;;;9.32;2.22;;;6.10;99.90;;;;;;5073806;28;20044;-64
2023/03/26 07:22:20;;;;;;;6.00;2.40;;;6.10;99.90;;;;;;5070458;28;20407;-63
2023/03/26 07:25:20;;;;;;;7.00;2.20;;;6.10;99.90;;;;;;5014430;28;20054;-59
2023/03/26 07:28:45;;;;;;;5.82;2.25;;;6.10;99.90;;;;;;5052280;28;20404;-63
2023/03/26 07:31:54;;;;;;;6.70;2.13;;;6.10;99.90;;;;;;5088469;28;20044;-63
2023/03/26 07:35:00;;;;;;;8.45;1.77;;;6.10;99.90;;;;;;5101900;28;20056;-59
2023/03/26 07:37:46;;;;;;;14.32;2.38;;;6.10;99.90;;;;;;5090878;28;20485;-62
2023/03/26 07:40:56;;;;;;;11.23;3.15;;;6.10;99.90;;;;;;5070935;28;20051;-59
2023/03/26 07:43:53;;;;;;;16.17;1.88;;;6.10;99.90;;;;;;5105389;28;20039;-60
2023/03/26 07:46:40;;;;;;;12.20;3.23;;;6.10;99.90;;;;;;5108950;28;20047;-62
2023/03/26 07:49:25;;;;;;;10.77;2.42;;;6.20;99.90;;;;;;5103888;28;20292;-59
2023/03/26 07:52:14;;;;;;;10.15;2.00;;;6.10;99.90;;;;;;5086840;28;20047;-60
2023/03/26 07:54:46;;;;;;;10.82;2.55;;;6.20;99.90;;;;;;5087417;28;20043;-63
2023/03/26 07:57:46;;;;;;;11.85;1.60;;;6.20;99.90;;;;;;5090253;28;20134;-59
2023/03/26 08:00:48;;;;;;;8.40;1.67;;;;;;;;;;5105102;28;20086;-60
2023/03/26 08:03:35;;;;;;;10.43;1.90;;;6.30;99.90;;;;;;5102027;28;20036;-60
2023/03/26 08:06:37;;;;;;;5.72;1.00;;;6.20;99.90;;;;;;5091416;28;20036;-59
2023/03/26 08:09:36;;;;;;;10.90;1.73;;;6.20;99.90;;;;;;5088957;28;20043;-59
2023/03/26 08:12:42;;;;;;;10.02;1.75;;;6.20;99.90;;;;;;5079189;28;20040;-61
2023/03/26 08:15:36;;;;;;;10.85;2.13;;;6.20;99.90;;;;;;5088413;28;20048;-60
2023/03/26 08:18:26;;;;;;;13.27;1.92;;;6.10;99.90;;;;;;5094990;28;20039;-59
2023/03/26 08:21:05;;;;;;;10.07;1.77;;;6.10;99.90;;;;;;5096754;28;20483;-58
2023/03/26 08:24:17;;;;;;;20.17;3.35;;;6.10;99.90;;;;;;5070268;28;20044;-60
2023/03/26 08:26:46;;;;;;;10.27;1.80;;;6.10;99.90;;;;;;5043421;28;20490;-60
2023/03/26 08:29:44;;;;;;;15.90;1.60;;;6.10;99.90;;;;;;5105824;28;20052;-60
2023/03/26 08:32:15;;;;;;;11.70;1.85;;;6.10;99.90;;;;;;5105967;28;20047;-60
2023/03/26 08:34:43;;;;;;;8.65;1.67;;;6.20;99.90;;;;;;5095875;28;20054;-65
2023/03/26 08:37:12;;;;;;;10.03;1.87;;;6.20;99.90;;;;;;5105210;28;20036;-64
2023/03/26 08:39:41;;;;;;;13.60;1.85;;;6.30;99.90;;;;;;5107484;28;20410;-60
2023/03/26 08:42:35;;;;;;;11.63;2.35;;;6.20;99.90;;;;;;5102232;28;20044;-60
2023/03/26 08:45:21;;;;;;;13.07;1.73;;;6.40;99.90;;;;;;5101163;28;20070;-60
2023/03/26 08:47:55;;;;;;;10.43;1.80;;;6.40;99.90;;;;;;5107896;28;20054;-59
2023/03/26 08:50:26;;;;;;;11.60;2.40;;;6.50;99.90;;;;;;5108689;28;20043;-59
2023/03/26 08:53:28;;;;;;;10.88;1.70;;;6.60;99.90;;;;;;5105625;28;20051;-58
2023/03/26 08:56:17;;;;;;;8.55;1.70;;;6.70;99.90;;;;;;5097176;28;20051;-61
2023/03/26 08:59:19;;;;;;;16.65;2.50;;;6.80;99.90;;;;;;5099503;28;20391;-58
2023/03/26 09:01:55;;;;;;;9.13;1.70;;;6.90;99.90;;;;;;5096611;28;20055;-60
2023/03/26 09:05:03;;;;;;;10.93;1.83;;;7.00;99.90;;;;;;5100770;28;20040;-58
2023/03/26 09:07:49;;;;;;;8.52;1.80;;;7.10;99.90;;;;;;5104004;28;20036;-60
2023/03/26 09:10:52;;;;;;;10.02;1.75;;;7.10;99.90;;;;;;5089967;28;20055;-59
2023/03/26 09:13:45;;;;;;;9.55;1.77;;;7.20;99.90;;;;;;5107053;28;20044;-58
2023/03/26 09:16:37;;;;;;;4.45;1.50;;;7.30;99.90;;;;;;5105578;28;20040;-57
2023/03/26 09:19:36;;;;;;;8.70;2.03;;;7.40;99.90;;;;;;5077827;28;20047;-58
2023/03/26 09:22:22;;;;;;;12.77;2.03;;;7.30;99.90;;;;;;5100769;28;20043;-58
2023/03/26 09:25:04;;;;;;;6.70;1.48;;;7.20;99.90;;;;;;5079752;28;20044;-61
2023/03/26 09:27:46;;;;;;;5.93;1.27;;;7.30;99.90;;;;;;5106163;28;20047;-59
2023/03/26 09:30:41;;;;;;;11.52;1.90;;;7.30;99.90;;;;;;5106453;28;20047;-57
2023/03/26 09:33:51;;;;;;;7.70;1.42;;;7.30;99.90;;;;;;5110191;28;20040;-59
2023/03/26 09:36:24;;;;;;;9.13;1.70;;;7.40;99.90;;;;;;5109265;28;20055;-59
2023/03/26 09:39:07;;;;;;;15.07;1.30;;;7.50;99.90;;;;;;5092461;28;20071;-59
2023/03/26 09:41:42;;;;;;;6.15;1.58;;;7.50;99.90;;;;;;5111572;28;20052;-59
2023/03/26 09:44:18;;;;;;;14.40;1.85;;;7.60;99.90;;;;;;5110412;28;20054;-60
2023/03/26 09:46:46;;;;;;;14.02;1.42;;;7.60;99.90;;;;;;5110947;28;20051;-59
2023/03/26 09:49:25;;;;;;;7.35;2.00;;;7.70;99.90;;;;;;5108235;28;20047;-61
2023/03/26 09:52:10;;;;;;;10.60;1.85;;;7.80;99.90;;;;;;5110096;28;20043;-58
2023/03/26 09:54:39;;;;;;;9.30;1.63;;;7.80;99.90;;;;;;5108837;28;20043;-58
2023/03/26 09:57:25;;;;;;;18.60;2.00;;;7.90;99.90;;;;;;5084076;28;20393;-57
2023/03/26 10:00:04;;;;;;;14.90;2.35;;;8.00;99.90;;;;;;5078298;28;20044;-60
2023/03/26 10:02:57;;;;;;;17.40;2.05;;;8.00;99.90;;;;;;5110009;28;20047;-58
2023/03/26 10:05:44;;;;;;;10.23;1.55;;;8.10;99.90;;;;;;5108612;28;20040;-59
2023/03/26 10:08:35;;;;;;;5.90;1.30;;;8.20;99.90;;;;;;5098226;28;20391;-59
2023/03/26 10:11:24;;;;;;;11.18;2.42;;;8.30;99.90;;;;;;5102911;28;20040;-59
2023/03/26 10:14:06;;;;;;;15.30;2.80;;;8.40;99.90;;;;;;5100913;28;20051;-60
2023/03/26 10:16:51;;;;;;;9.52;1.65;;;8.40;99.90;;;;;;5105536;28;20050;-59
2023/03/26 10:19:36;;;;;;;12.57;1.27;;;8.40;99.90;;;;;;5109926;28;20050;-58
2023/03/26 10:22:19;;;;;;;10.88;1.70;;;8.40;99.90;;;;;;5108796;28;20035;-58
2023/03/26 10:25:18;;;;;;;14.07;2.55;;;8.40;99.90;;;;;;5093852;28;20048;-59
2023/03/26 10:28:19;;;;;;;9.55;1.95;;;8.40;99.90;;;;;;5108515;28;20044;-59
2023/03/26 10:31:19;;;;;;;11.57;1.73;;;8.40;99.90;;;;;;5067924;28;20065;-62
2023/03/26 10:33:59;;;;;;;7.50;1.83;;;8.40;99.90;;;;;;5105854;28;20051;-59
2023/03/26 10:36:35;;;;;;;9.00;2.00;;;8.40;99.90;;;;;;5106947;28;20043;-58
2023/03/26 10:39:45;;;;;;;14.60;2.58;;;8.40;99.90;;;;;;5110119;28;20048;-58
2023/03/26 10:42:26;;;;;;;8.27;2.45;;;8.50;99.90;;;;;;5110451;28;20054;-59
2023/03/26 10:45:25;;;;;;;7.72;1.40;;;8.90;99.90;;;;;;5109769;28;20663;-58
2023/03/26 10:48:11;;;;;;;4.45;1.60;;;8.90;99.90;;;;;;5098638;28;20515;-59
2023/03/26 10:51:08;;;;;;;10.82;1.75;;;9.00;99.90;;;;;;5089723;28;20052;-59
2023/03/26 10:54:01;;;;;;;17.48;2.35;;;9.10;99.90;;;;;;5110048;28;20048;-58
2023/03/26 10:56:38;;;;;;;11.50;2.13;;;9.20;99.90;;;;;;5110015;28;20052;-59
2023/03/26 10:59:11;;;;;;;14.65;2.28;;;9.30;99.90;;;;;;5101296;28;20039;-58
2023/03/26 11:02:00;;;;;;;7.00;1.92;;;9.50;99.90;;;;;;5108842;28;20054;-59
2023/03/26 11:04:54;;;;;;;6.75;1.60;;;9.50;99.90;;;;;;5095373;28;20577;-59
2023/03/26 11:07:27;;;;;;;7.70;1.92;;;9.70;99.90;;;;;;5091372;28;20418;-57
2023/03/26 11:10:04;;;;;;;15.07;2.05;;;9.90;99.90;;;;;;5108834;28;20043;-59
2023/03/26 11:13:02;;;;;;;6.95;1.27;;;9.90;99.90;;;;;;5106225;28;20078;-59
2023/03/26 11:15:40;;;;;;;10.50;1.60;;;9.90;99.90;;;;;;5100640;28;20044;-59
2023/03/26 11:18:22;;;;;;;15.13;1.88;;;9.90;99.90;;;;;;5096495;28;20379;-59
2023/03/26 11:21:13;;;;;;;7.78;2.15;;;9.90;99.90;;;;;;5108453;28;20043;-60
2023/03/26 11:24:40;;;;;;;11.05;2.35;;;9.90;99.90;;;;;;5102205;28;20050;-59
2023/03/26 11:27:37;;;;;;;9.38;1.33;;;9.90;99.90;;;;;;5106669;28;20031;-59
2023/03/26 11:30:40;;;;;;;8.13;2.60;;;9.90;99.90;;;;;;5077707;28;20655;-59
2023/03/26 11:33:15;;;;;;;12.13;1.80;;;9.90;99.90;;;;;;5073214;28;20051;-60
2023/03/26 11:35:51;;;;;;;8.35;1.77;;;10.00;99.90;;;;;;5089327;28;20055;-60
2023/03/26 11:38:30;;;;;;;14.13;2.03;;;10.00;99.90;;;;;;5108235;28;20044;-59
2023/03/26 11:41:01;;;;;;;8.95;1.80;;;10.10;99.90;;;;;;5108183;28;20321;-58
2023/03/26 11:43:51;;;;;;;7.95;1.13;;;10.10;99.90;;;;;;5084782;28;20399;-59
2023/03/26 11:46:23;;;;;;;7.75;2.80;;;10.20;99.90;;;;;;5108043;28;20089;-61
2023/03/26 11:49:05;;;;;;;6.60;0.95;;;10.40;99.90;;;;;;5106207;28;20052;-59
2023/03/26 11:51:40;;;;;;;9.20;2.13;;;10.70;99.90;;;;;;5098169;28;20035;-60
2023/03/26 11:54:11;;;;;;;11.13;1.20;;;10.70;99.90;;;;;;5106155;28;20044;-61
2023/03/26 11:56:55;;;;;;;10.95;1.80;;;10.70;99.90;;;;;;5101425;28;20051;-58
2023/03/26 11:59:46;;;;;;;3.40;1.10;;;10.80;99.90;;;;;;5103053;28;20063;-59
2023/03/26 12:02:37;;;;;;;18.30;1.73;;;10.90;99.90;;;;;;5103453;28;20221;-61
2023/03/26 12:05:30;;;;;;;12.75;2.42;;;10.90;99.90;;;;;;5096735;28;20505;-59
2023/03/26 12:08:01;;;;;;;11.77;2.67;;;10.80;99.90;;;;;;5103878;28;20345;-58
2023/03/26 12:10:31;;;;;;;4.57;1.10;;;10.70;99.90;;;;;;5107941;28;20054;-62
2023/03/26 12:13:28;;;;;;;9.95;2.05;;;10.60;99.90;;;;;;5090644;28;20050;-61
2023/03/26 12:15:59;;;;;;;3.85;1.60;;;10.60;99.90;;;;;;5104690;28;20052;-62
2023/03/26 12:18:27;;;;;;;11.32;1.63;;;10.60;99.90;;;;;;5108495;28;20505;-63
2023/03/26 12:21:03;;;;;;;12.27;2.78;;;10.50;99.90;;;;;;5094608;28;20533;-60
2023/03/26 12:23:55;;;;;;;7.72;1.48;;;10.50;99.90;;;;;;5093347;28;20039;-59
2023/03/26 12:26:35;;;;;;;12.23;2.30;;;10.50;99.90;;;;;;5108519;28;20054;-59
2023/03/26 12:29:12;;;;;;;6.18;1.83;;;10.60;99.90;;;;;;5101083;28;20689;-59
2023/03/26 12:31:55;;;;;;;10.45;1.60;;;10.50;99.90;;;;;;5088290;28;20078;-60
2023/03/26 12:34:33;;;;;;;7.03;1.95;;;10.60;99.90;;;;;;5098526;28;20055;-61
2023/03/26 12:37:03;;;;;;;8.43;1.35;;;10.60;99.90;;;;;;5107515;28;20062;-60
2023/03/26 12:39:32;;;;;;;;;;;10.70;99.90;;;;;;5090435;28;20043;-59
2023/03/26 12:42:29;;;;;;;9.98;1.50;;;10.80;99.90;;;;;;5090253;28;19924;-58
2023/03/26 12:45:39;;;;;;;4.47;1.40;;;10.80;99.90;;;;;;5089393;28;20051;-59
2023/03/26 12:48:11;;;;;;;9.93;1.73;;;10.80;99.90;;;;;;5108360;28;20051;-57
2023/03/26 12:51:03;;;;;;;10.02;1.77;;;10.70;99.90;;;;;;5090651;28;20074;-58
2023/03/26 12:54:12;;;;;;;8.82;1.58;;;10.60;99.90;;;;;;5075020;28;20040;-58
2023/03/26 12:57:03;;;;;;;13.73;3.20;;;10.50;99.90;;;;;;5087755;28;20613;-59
2023/03/26 13:00:00;;;;;;;31.70;5.03;;;10.30;99.90;;;;;;5107365;28;20509;-58
2023/03/26 13:02:47;;;;;;;9.98;1.80;;;10.20;99.90;;;;;;5096708;28;20043;-60
2023/03/26 13:05:54;;;;;;;6.10;2.40;;;10.20;99.90;;;;;;5105756;28;20403;-59
2023/03/26 13:08:40;;;;;;;9.48;1.60;;;10.10;99.90;;;;;;5111355;28;20399;-59
2023/03/26 13:11:14;;;;;;;8.10;1.70;;;10.10;99.90;;;;;;5093862;28;20048;-59
2023/03/26 13:14:06;;;;;;;12.32;1.73;;;10.00;99.90;;;;;;5111632;28;20122;-59
2023/03/26 13:16:52;;;;;;;5.78;1.80;;;10.10;99.90;;;;;;5108710;28;20040;-58
2023/03/26 13:19:34;;;;;;;6.60;1.52;;;10.10;99.90;;;;;;5093549;28;20063;-59
2023/03/26 13:22:16;;;;;;;7.35;1.75;;;10.10;99.90;;;;;;5110084;28;20043;-58
2023/03/26 13:24:54;;;;;;;14.60;5.22;;;10.10;99.90;;;;;;5093645;28;20035;-59
2023/03/26 13:27:28;;;;;;;32.25;10.45;;;10.20;99.90;;;;;;5093495;28;20044;-58
2023/03/26 13:30:00;;;;;;;22.33;5.53;;;10.20;99.90;;;;;;5088200;28;20055;-59
2023/03/26 13:32:50;;;;;;;4.07;1.85;;;10.40;99.90;;;;;;5105306;28;20047;-59
2023/03/26 13:35:26;;;;;;;9.17;2.00;;;10.50;99.90;;;;;;5111418;28;20044;-59
2023/03/26 13:38:04;;;;;;;8.75;2.17;;;10.80;99.90;;;;;;5111550;28;20035;-58
2023/03/26 13:40:38;;;;;;;9.63;1.90;;;10.90;99.90;;;;;;5093486;28;20054;-58
2023/03/26 13:43:20;;;;;;;6.28;1.60;;;11.00;99.90;;;;;;5111369;28;20043;-59
2023/03/26 13:46:10;;;;;;;7.05;1.40;;;11.00;99.90;;;;;;5110815;28;20047;-60
2023/03/26 13:48:59;;;;;;;6.70;1.70;;;11.00;99.90;;;;;;5102931;28;20509;-59
2023/03/26 13:51:39;;;;;;;5.30;1.30;;;10.80;99.90;;;;;;5111660;28;20066;-58
2023/03/26 13:54:20;;;;;;;7.88;1.92;;;10.80;99.90;;;;;;5110825;28;20035;-58
2023/03/26 13:57:18;;;;;;;5.18;1.30;;;10.50;99.90;;;;;;5111449;28;20051;-59
2023/03/26 13:59:59;;;;;;;6.35;1.38;;;10.50;99.90;;;;;;5110775;28;20055;-59
2023/03/26 14:02:40;;;;;;;4.65;1.13;;;10.40;99.90;;;;;;5111164;28;20047;-59